Time;durP1;ratioP1;P1;durP2;ratioP2;P2;SDS_P1;SDS_P2;PMS_P1;PMS_P2;Temp;Humidity;BMP_temperature;BMP_pressure;BME280_temperature;BME280_humidity;BME280_pressure;Samples;Min_cycle;Max_cycle;Signal;HPM_P1;HPM_P2
2022/01/24 00:00:02;;;;;;;27.50;17.90;;;;;;;;;;5032819;28;20518;-77
2022/01/24 00:02:30;;;;;;;30.07;16.50;;;;;;;;;;5034080;28;20806;-77
2022/01/24 00:04:56;;;;;;;23.00;15.63;;;;;;;;;;5034000;28;20403;-77
2022/01/24 00:07:24;;;;;;;31.67;17.33;;;;;;;;;;5034301;28;20406;-77
2022/01/24 00:09:53;;;;;;;25.67;16.10;;;;;;;;;;5032521;28;20458;-77
2022/01/24 00:12:33;;;;;;;29.20;17.70;;;;;;;;;;5033462;28;20403;-78
2022/01/24 00:15:21;;;;;;;29.03;17.17;;;;;;;;;;5034284;28;20383;-78
2022/01/24 00:18:03;;;;;;;26.80;16.17;;;;;;;;;;5034321;28;20407;-77
2022/01/24 00:28:26;;;;;;;25.73;16.53;;;;;;;;;;5034165;28;20406;-77
2022/01/24 00:30:52;;;;;;;31.53;16.50;;;;;;;;;;5033942;28;20778;-77
2022/01/24 00:33:19;;;;;;;26.60;17.33;;;;;;;;;;5034224;28;20413;-77
2022/01/24 00:35:45;;;;;;;27.47;16.67;;;;;;;;;;5034157;28;20414;-77
2022/01/24 00:38:11;;;;;;;27.00;17.97;;;;;;;;;;5033925;28;20483;-77
2022/01/24 00:40:40;;;;;;;31.40;18.90;;;;;;;;;;5033566;28;21065;-78
2022/01/24 00:43:25;;;;;;;28.03;17.10;;;;;;;;;;5033240;28;20411;-77
2022/01/24 00:46:05;;;;;;;28.67;19.10;;;;;;;;;;5033931;28;20387;-77
2022/01/24 00:54:42;;;;;;;24.53;16.63;;;;;;;;;;5033843;28;20432;-77
2022/01/24 00:56:50;;;;;;;30.50;17.43;;;;;;;;;;5033459;28;20422;-77
2022/01/24 00:59:16;;;;;;;29.37;19.53;;;;;;;;;;5033542;28;20440;-77
2022/01/24 01:01:42;;;;;;;23.97;15.90;;;;;;;;;;5033508;28;20405;-77
2022/01/24 01:04:08;;;;;;;26.20;17.30;;;;;;;;;;5033704;28;20494;-77
2022/01/24 01:06:34;;;;;;;26.00;16.90;;;;;;;;;;5033308;28;20418;-77
2022/01/24 01:19:59;;;;;;;27.53;18.17;;;;;;;;;;5046892;23;20453;-81
2022/01/24 01:22:28;;;;;;;21.63;14.13;;;;;;;;;;5016289;28;20447;-83
2022/01/24 01:24:55;;;;;;;26.00;16.33;;;;;;;;;;5018707;28;20823;-83
2022/01/24 01:27:40;;;;;;;28.20;15.97;;;;;;;;;;5017046;28;20954;-82
2022/01/24 01:30:14;;;;;;;23.07;14.50;;;;;;;;;;5021985;28;20459;-82
2022/01/24 01:38:24;;;;;;;26.97;16.10;;;;;;;;;;5023742;28;20383;-84
2022/01/24 01:57:12;;;;;;;26.80;15.60;;;;;;;;;;5026830;28;20522;-83
2022/01/24 01:59:38;;;;;;;24.47;15.90;;;;;;;;;;5023698;28;20499;-83
2022/01/24 02:02:04;;;;;;;26.40;16.80;;;;;;;;;;5022790;28;20408;-82
2022/01/24 02:04:30;;;;;;;24.63;16.30;;;;;;;;;;5023112;28;20408;-83
2022/01/24 02:06:56;;;;;;;26.43;16.70;;;;;;;;;;5023048;28;20490;-83
2022/01/24 02:09:28;;;;;;;26.37;17.17;;;;;;;;;;5022748;28;20541;-83
2022/01/24 02:11:54;;;;;;;24.20;14.50;;;;;;;;;;5023097;28;20442;-83
2022/01/24 02:14:22;;;;;;;29.70;17.30;;;;;;;;;;5021416;28;20420;-83
2022/01/24 02:17:14;;;;;;;28.20;16.77;;;;;;;;;;5021404;28;20451;-83
2022/01/24 02:20:03;;;;;;;23.00;15.67;;;;;;;;;;5022714;28;20420;-83
2022/01/24 02:25:05;;;;;;;25.60;16.30;;;;;;;;;;5022090;28;20483;-84
2022/01/24 02:27:42;;;;;;;23.53;16.07;;;;;;;;;;5022545;28;20486;-82
2022/01/24 02:30:37;;;;;;;25.37;15.97;;;;;;;;;;5020529;28;20546;-83
2022/01/24 02:33:00;;;;;;;23.17;15.13;;;;;;;;;;5021924;28;20414;-83
2022/01/24 02:35:27;;;;;;;22.00;14.93;;;;;;;;;;5022121;28;20896;-81
2022/01/24 02:37:53;;;;;;;22.37;15.60;;;;;;;;;;5017803;28;20571;-83
2022/01/24 02:40:20;;;;;;;20.67;13.23;;;;;;;;;;5021912;28;20430;-83
2022/01/24 02:48:24;;;;;;;23.47;15.47;;;;;;;;;;5021995;28;20410;-83
2022/01/24 02:51:10;;;;;;;21.60;14.87;;;;;;;;;;5020049;28;20474;-83
2022/01/24 02:53:36;;;;;;;26.20;13.80;;;;;;;;;;5020813;28;20420;-83
2022/01/24 02:56:03;;;;;;;24.33;15.00;;;;;;;;;;5021589;28;20407;-83
2022/01/24 02:58:29;;;;;;;22.53;14.40;;;;;;;;;;5024534;28;20404;-83
2022/01/24 03:00:56;;;;;;;19.70;12.50;;;;;;;;;;5021809;28;20443;-82
2022/01/24 03:03:22;;;;;;;22.27;13.93;;;;;;;;;;5022159;28;20448;-81
2022/01/24 03:05:49;;;;;;;25.70;14.20;;;;;;;;;;5022267;28;20407;-83
2022/01/24 03:08:15;;;;;;;21.93;14.00;;;;;;;;;;5021763;28;20795;-83
2022/01/24 03:10:46;;;;;;;20.03;13.40;;;;;;;;;;5018959;28;20459;-83
2022/01/24 03:15:52;;;;;;;24.63;14.67;;;;;;;;;;5020637;28;20463;-82
2022/01/24 03:18:18;;;;;;;25.07;15.60;;;;;;;;;;5018576;28;20935;-83
2022/01/24 03:20:45;;;;;;;21.53;14.03;;;;;;;;;;5020011;28;20462;-81
2022/01/24 03:23:12;;;;;;;26.93;15.70;;;;;;;;;;5024202;28;20442;-81
2022/01/24 03:25:38;;;;;;;28.57;16.73;;;;;;;;;;5028801;28;20422;-82
2022/01/24 03:28:04;;;;;;;22.27;14.90;;;;;;;;;;5024971;28;20486;-80
2022/01/24 03:30:31;;;;;;;21.13;14.50;;;;;;;;;;5020340;28;20463;-81
2022/01/24 03:32:57;;;;;;;19.60;14.67;;;;;;;;;;5017402;28;20427;-81
2022/01/24 03:35:23;;;;;;;25.80;14.77;;;;;;;;;;5019119;28;20470;-82
2022/01/24 03:37:49;;;;;;;21.00;14.47;;;;;;;;;;5017884;28;20468;-81
2022/01/24 03:40:15;;;;;;;24.53;15.30;;;;;;;;;;5019750;28;20423;-81
2022/01/24 03:42:41;;;;;;;24.00;15.13;;;;;;;;;;5019303;28;20457;-82
2022/01/24 03:45:10;;;;;;;27.97;16.20;;;;;;;;;;5018843;28;20400;-82
2022/01/24 03:50:05;;;;;;;26.23;15.73;;;;;;;;;;5020375;28;20498;-82
2022/01/24 03:52:32;;;;;;;30.53;16.10;;;;;;;;;;5020980;28;20465;-81
2022/01/24 03:54:58;;;;;;;29.17;15.50;;;;;;;;;;5020497;28;20404;-82
2022/01/24 03:57:25;;;;;;;25.87;14.83;;;;;;;;;;5021012;28;20416;-82
2022/01/24 03:59:51;;;;;;;33.37;16.97;;;;;;;;;;5019158;28;20911;-83
2022/01/24 04:02:19;;;;;;;25.70;15.50;;;;;;;;;;5019126;28;20511;-82
2022/01/24 04:04:45;;;;;;;22.80;14.83;;;;;;;;;;5018827;28;20429;-83
2022/01/24 04:07:11;;;;;;;22.20;13.53;;;;;;;;;;5018860;28;20434;-79
2022/01/24 04:09:39;;;;;;;24.30;13.70;;;;;;;;;;5019679;28;20526;-83
2022/01/24 04:12:07;;;;;;;28.53;15.97;;;;;;;;;;5020787;28;20475;-83
2022/01/24 04:22:18;;;;;;;28.73;16.07;;;;;;;;;;5019151;28;20388;-83
2022/01/24 04:24:45;;;;;;;24.73;15.90;;;;;;;;;;5017835;28;20423;-82
2022/01/24 04:27:13;;;;;;;17.93;12.90;;;;;;;;;;5019468;28;20429;-82
2022/01/24 04:29:39;;;;;;;26.03;14.70;;;;;;;;;;5017673;28;20809;-83
2022/01/24 04:32:05;;;;;;;25.87;15.70;;;;;;;;;;5019226;28;20415;-82
2022/01/24 04:34:31;;;;;;;25.30;15.73;;;;;;;;;;5018864;28;20403;-83
2022/01/24 04:36:57;;;;;;;25.57;15.23;;;;;;;;;;5018973;28;20403;-83
2022/01/24 04:39:24;;;;;;;27.37;19.10;;;;;;;;;;5017536;28;20411;-82
2022/01/24 04:41:53;;;;;;;23.40;14.53;;;;;;;;;;5017366;28;20481;-82
2022/01/24 04:54:56;;;;;;;30.57;17.80;;;;;;;;;;5014741;28;20796;-82
2022/01/24 04:57:23;;;;;;;24.47;14.93;;;;;;;;;;5017370;28;20411;-82
2022/01/24 04:59:50;;;;;;;26.53;16.00;;;;;;;;;;5017344;28;20412;-82
2022/01/24 05:02:17;;;;;;;26.70;15.63;;;;;;;;;;5018801;28;20411;-82
2022/01/24 05:04:43;;;;;;;25.87;15.20;;;;;;;;;;5019451;28;20411;-82
2022/01/24 05:07:10;;;;;;;25.07;16.10;;;;;;;;;;5018635;28;20407;-82
2022/01/24 05:09:44;;;;;;;23.93;15.17;;;;;;;;;;5018086;28;20451;-82
2022/01/24 05:25:44;;;;;;;28.00;16.87;;;;;;;;;;5022050;28;20398;-81
2022/01/24 05:28:10;;;;;;;26.97;16.03;;;;;;;;;;5022810;28;20400;-81
2022/01/24 05:30:36;;;;;;;23.77;14.83;;;;;;;;;;5021205;28;20470;-82
2022/01/24 05:33:02;;;;;;;22.50;14.90;;;;;;;;;;5020112;28;20433;-82
2022/01/24 05:35:28;;;;;;;24.63;15.17;;;;;;;;;;5021128;28;20541;-81
2022/01/24 05:37:54;;;;;;;24.70;15.70;;;;;;;;;;5020105;28;20407;-81
2022/01/24 05:40:20;;;;;;;27.83;16.57;;;;;;;;;;5021490;28;20519;-82
2022/01/24 05:42:47;;;;;;;26.00;16.03;;;;;;;;;;5021043;28;20404;-82
2022/01/24 05:45:16;;;;;;;22.97;16.03;;;;;;;;;;5019872;28;20411;-81
2022/01/24 05:47:42;;;;;;;29.93;17.70;;;;;;;;;;5019510;28;20416;-81
2022/01/24 05:50:08;;;;;;;26.90;16.10;;;;;;;;;;5021334;28;20858;-82
2022/01/24 05:52:34;;;;;;;29.03;17.70;;;;;;;;;;5020181;28;20415;-81
2022/01/24 05:55:00;;;;;;;36.57;17.80;;;;;;;;;;5021210;28;20416;-83
2022/01/24 05:57:26;;;;;;;27.90;17.17;;;;;;;;;;5020668;28;20978;-83
2022/01/24 05:59:53;;;;;;;28.13;16.70;;;;;;;;;;5021048;28;20510;-83
2022/01/24 06:02:19;;;;;;;29.10;15.00;;;;;;;;;;5021353;28;20408;-83
2022/01/24 06:04:45;;;;;;;27.30;16.93;;;;;;;;;;5021196;28;20442;-83
2022/01/24 06:07:11;;;;;;;27.30;16.87;;;;;;;;;;5022069;28;20420;-83
2022/01/24 06:09:37;;;;;;;26.63;15.83;;;;;;;;;;5022551;28;20478;-83
2022/01/24 06:12:03;;;;;;;27.00;16.53;;;;;;;;;;5021656;28;20467;-83
2022/01/24 06:14:30;;;;;;;26.67;15.40;;;;;;;;;;5020377;28;20408;-82
2022/01/24 06:16:56;;;;;;;21.87;13.57;;;;;;;;;;5020338;28;20430;-83
2022/01/24 06:19:22;;;;;;;25.53;15.13;;;;;;;;;;5021528;28;20466;-83
2022/01/24 06:21:48;;;;;;;31.30;17.80;;;;;;;;;;5020038;28;20454;-83
2022/01/24 06:24:14;;;;;;;22.47;13.97;;;;;;;;;;5020536;28;20916;-83
2022/01/24 06:26:43;;;;;;;22.30;13.10;;;;;;;;;;5020303;28;20440;-82
2022/01/24 06:29:09;;;;;;;23.70;13.97;;;;;;;;;;5022035;28;20574;-83
2022/01/24 06:31:35;;;;;;;25.33;13.50;;;;;;;;;;5021201;28;20424;-82
2022/01/24 06:34:01;;;;;;;25.20;14.97;;;;;;;;;;5020079;28;20467;-81
2022/01/24 06:36:27;;;;;;;25.97;15.57;;;;;;;;;;5019642;28;20502;-83
2022/01/24 06:38:54;;;;;;;32.37;15.63;;;;;;;;;;5020581;28;20420;-83
2022/01/24 06:41:26;;;;;;;25.43;16.30;;;;;;;;;;5019888;28;20454;-81
2022/01/24 06:43:52;;;;;;;22.63;15.43;;;;;;;;;;5018537;28;20399;-83
2022/01/24 06:46:18;;;;;;;28.17;14.40;;;;;;;;;;5016698;28;20415;-82
2022/01/24 06:48:44;;;;;;;30.47;16.43;;;;;;;;;;5018508;28;20406;-81
2022/01/24 06:51:10;;;;;;;25.53;16.00;;;;;;;;;;5018761;28;20420;-83
2022/01/24 06:53:41;;;;;;;28.33;16.23;;;;;;;;;;5020110;28;20411;-82
2022/01/24 06:56:07;;;;;;;28.80;18.80;;;;;;;;;;5022508;28;20388;-82
2022/01/24 06:58:34;;;;;;;25.73;16.03;;;;;;;;;;5021005;28;20788;-82
2022/01/24 07:01:00;;;;;;;29.30;16.37;;;;;;;;;;5019360;28;20511;-82
2022/01/24 07:03:26;;;;;;;29.17;15.77;;;;;;;;;;5019559;28;20403;-82
2022/01/24 07:05:52;;;;;;;27.53;16.23;;;;;;;;;;5020177;28;20423;-82
2022/01/24 07:08:19;;;;;;;30.37;17.73;;;;;;;;;;5018460;28;20814;-82
2022/01/24 07:10:45;;;;;;;26.83;16.70;;;;;;;;;;5019442;28;20466;-82
2022/01/24 07:13:11;;;;;;;28.30;16.07;;;;;;;;;;5019310;28;20404;-82
2022/01/24 07:15:46;;;;;;;24.40;14.80;;;;;;;;;;5018592;28;20401;-81
2022/01/24 07:20:57;;;;;;;27.33;15.57;;;;;;;;;;5056062;23;20497;-80
2022/01/24 07:23:23;;;;;;;26.37;15.97;;;;;;;;;;4997319;28;20504;-81
2022/01/24 07:25:49;;;;;;;30.73;15.40;;;;;;;;;;5002108;28;20491;-79
2022/01/24 07:28:16;;;;;;;23.23;14.77;;;;;;;;;;5007001;28;20797;-79
2022/01/24 07:30:42;;;;;;;32.03;15.93;;;;;;;;;;4999074;28;20460;-79
2022/01/24 07:33:08;;;;;;;26.17;15.13;;;;;;;;;;4996217;28;20482;-81
2022/01/24 07:35:34;;;;;;;21.77;13.47;;;;;;;;;;4995139;28;20412;-79
2022/01/24 07:38:01;;;;;;;23.37;14.40;;;;;;;;;;4996736;28;20427;-80
2022/01/24 07:40:27;;;;;;;20.50;14.40;;;;;;;;;;4997164;28;20466;-81
2022/01/24 07:42:57;;;;;;;20.80;14.10;;;;;;;;;;4996497;28;20404;-81
2022/01/24 07:45:23;;;;;;;22.37;13.67;;;;;;;;;;4997261;28;20427;-81
2022/01/24 07:47:50;;;;;;;21.43;13.53;;;;;;;;;;4995609;28;20423;-80
2022/01/24 07:50:17;;;;;;;21.67;12.83;;;;;;;;;;4998104;28;20974;-81
2022/01/24 07:52:43;;;;;;;26.87;15.37;;;;;;;;;;5014673;28;20829;-80
2022/01/24 07:55:09;;;;;;;19.87;14.10;;;;;;;;;;5030849;28;20418;-81
2022/01/24 07:57:35;;;;;;;23.03;14.00;;;;;;;;;;5018174;28;20439;-80
2022/01/24 08:00:01;;;;;;;19.10;13.33;;;;;;;;;;5016088;28;20422;-81
2022/01/24 08:02:27;;;;;;;20.33;12.93;;;;;;;;;;5018165;28;20443;-80
2022/01/24 08:04:53;;;;;;;25.30;13.83;;;;;;;;;;5013920;28;20454;-80
2022/01/24 08:07:19;;;;;;;20.90;12.70;;;;;;;;;;5017390;28;20426;-78
2022/01/24 08:09:45;;;;;;;23.42;14.55;;;;;;;;;;5013397;28;20510;-81
2022/01/24 08:12:11;;;;;;;22.50;14.70;;;;;;;;;;5007901;28;20205;-81
2022/01/24 08:14:38;;;;;;;22.00;13.93;;;;;;;;;;5010246;28;20770;-80
2022/01/24 08:17:06;;;;;;;22.53;14.80;;;;;;;;;;5015780;28;20440;-82
2022/01/24 08:19:34;;;;;;;19.60;14.20;;;;;;;;;;5013138;28;20515;-82
2022/01/24 08:22:00;;;;;;;18.37;12.80;;;;;;;;;;5017372;28;20523;-81
2022/01/24 08:24:27;;;;;;;19.20;12.93;;;;;;;;;;5010784;28;20439;-81
2022/01/24 08:26:54;;;;;;;23.27;14.00;;;;;;;;;;5004830;28;20432;-81
2022/01/24 08:29:21;;;;;;;22.07;13.77;;;;;;;;;;5016167;28;20455;-82
2022/01/24 08:31:50;;;;;;;24.97;15.13;;;;;;;;;;5015066;28;20574;-81
2022/01/24 08:34:16;;;;;;;23.23;13.47;;;;;;;;;;5016057;28;20447;-81
2022/01/24 08:36:42;;;;;;;21.37;12.83;;;;;;;;;;5014792;28;20503;-82
2022/01/24 08:39:09;;;;;;;21.53;14.13;;;;;;;;;;5007134;28;20434;-81
2022/01/24 08:41:45;;;;;;;24.60;14.80;;;;;;;;;;5017237;28;20515;-80
2022/01/24 08:46:47;;;;;;;23.63;13.70;;;;;;;;;;5007345;28;20420;-79
2022/01/24 08:49:13;;;;;;;26.30;15.33;;;;;;;;;;5016676;28;20463;-82
2022/01/24 08:51:39;;;;;;;29.00;15.90;;;;;;;;;;5018325;28;20432;-81
2022/01/24 08:54:06;;;;;;;30.03;16.07;;;;;;;;;;5016347;28;20482;-81
2022/01/24 08:56:32;;;;;;;29.83;14.73;;;;;;;;;;5018369;28;20428;-81
2022/01/24 08:58:58;;;;;;;27.30;14.60;;;;;;;;;;5017204;28;20503;-80
2022/01/24 09:01:24;;;;;;;27.30;15.73;;;;;;;;;;5020388;28;20431;-80
2022/01/24 09:03:51;;;;;;;28.00;14.97;;;;;;;;;;5012358;28;20435;-79
2022/01/24 09:06:18;;;;;;;25.97;16.17;;;;;;;;;;5019083;28;20869;-79
2022/01/24 09:08:45;;;;;;;30.07;17.77;;;;;;;;;;5017589;28;20426;-81
2022/01/24 09:11:11;;;;;;;31.93;18.13;;;;;;;;;;5013685;28;21035;-80
2022/01/24 09:13:37;;;;;;;31.88;18.77;;;;;;;;;;5017676;28;20422;-81
2022/01/24 09:16:04;;;;;;;31.03;17.07;;;;;;;;;;5013575;28;20165;-80
2022/01/24 09:18:30;;;;;;;28.17;16.80;;;;;;;;;;5015799;28;20447;-78
2022/01/24 09:20:57;;;;;;;28.77;18.17;;;;;;;;;;5020335;28;20530;-80
2022/01/24 09:23:23;;;;;;;25.40;15.83;;;;;;;;;;5017373;28;20801;-78
2022/01/24 09:25:51;;;;;;;25.03;16.30;;;;;;;;;;5019633;28;20503;-78
2022/01/24 09:28:17;;;;;;;29.30;17.17;;;;;;;;;;5018526;28;20435;-77
2022/01/24 09:30:43;;;;;;;33.75;18.70;;;;;;;;;;5017001;28;20463;-80
2022/01/24 09:33:13;;;;;;;30.27;16.33;;;;;;;;;;5016909;28;20176;-79
2022/01/24 09:35:40;;;;;;;26.30;15.20;;;;;;;;;;5013759;28;20439;-77
2022/01/24 09:38:06;;;;;;;31.25;17.90;;;;;;;;;;5020263;28;20451;-78
2022/01/24 09:40:33;;;;;;;25.03;16.00;;;;;;;;;;5015781;28;20173;-79
2022/01/24 09:42:59;;;;;;;22.33;14.57;;;;;;;;;;5011345;28;20534;-79
2022/01/24 09:45:26;;;;;;;30.37;15.00;;;;;;;;;;5012903;28;20743;-80
2022/01/24 09:47:53;;;;;;;27.52;16.58;;;;;;;;;;5028406;28;20423;-78
2022/01/24 09:50:19;;;;;;;28.40;17.33;;;;;;;;;;5027496;28;20200;-78
2022/01/24 09:52:46;;;;;;;27.90;15.43;;;;;;;;;;5029250;28;20442;-79
2022/01/24 09:55:13;;;;;;;32.27;16.80;;;;;;;;;;5009294;28;20432;-79
2022/01/24 09:57:41;;;;;;;27.47;15.17;;;;;;;;;;5020657;28;20426;-77
2022/01/24 10:00:09;;;;;;;26.47;15.60;;;;;;;;;;5029742;28;20431;-78
2022/01/24 10:02:35;;;;;;;31.60;17.23;;;;;;;;;;5022070;28;20517;-80
2022/01/24 10:05:15;;;;;;;29.00;16.67;;;;;;;;;;5014445;28;20501;-81
2022/01/24 10:07:41;;;;;;;29.40;16.63;;;;;;;;;;5017200;28;20207;-81
2022/01/24 10:10:10;;;;;;;27.20;15.53;;;;;;;;;;5014144;28;20471;-79
2022/01/24 10:18:04;;;;;;;24.60;16.13;;;;;;;;;;5018706;28;20542;-81
2022/01/24 10:20:32;;;;;;;26.88;17.00;;;;;;;;;;5010122;28;20445;-81
2022/01/24 10:23:04;;;;;;;27.07;15.07;;;;;;;;;;5012390;28;20203;-82
2022/01/24 10:25:31;;;;;;;29.23;14.93;;;;;;;;;;5013103;28;20431;-82
2022/01/24 10:28:02;;;;;;;25.80;15.33;;;;;;;;;;5008905;28;20440;-81
2022/01/24 10:30:28;;;;;;;23.60;14.80;;;;;;;;;;5012577;28;20463;-80
2022/01/24 10:32:55;;;;;;;28.45;17.10;;;;;;;;;;5014351;28;20503;-80
2022/01/24 10:35:21;;;;;;;22.27;14.70;;;;;;;;;;5016071;28;20826;-81
2022/01/24 10:37:50;;;;;;;27.40;13.90;;;;;;;;;;5017555;28;20784;-81
2022/01/24 10:41:09;;;;;;;27.73;14.60;;;;;;;;;;5012141;28;21028;-82
2022/01/24 10:43:22;;;;;;;28.73;15.63;;;;;;;;;;5010970;28;20429;-82
2022/01/24 10:45:49;;;;;;;23.80;14.90;;;;;;;;;;5016863;28;20429;-80
2022/01/24 10:48:20;;;;;;;32.83;15.80;;;;;;;;;;5016167;28;20876;-81
2022/01/24 10:50:46;;;;;;;28.97;16.43;;;;;;;;;;5018369;28;20518;-80
2022/01/24 10:53:13;;;;;;;26.73;16.00;;;;;;;;;;5012270;28;20439;-80
2022/01/24 10:55:44;;;;;;;26.73;15.70;;;;;;;;;;5008412;28;20789;-80
2022/01/24 10:58:16;;;;;;;26.93;14.80;;;;;;;;;;5012370;28;20478;-80
2022/01/24 11:00:43;;;;;;;22.97;14.20;;;;;;;;;;5012694;28;20448;-81
2022/01/24 11:03:15;;;;;;;24.77;13.80;;;;;;;;;;5012550;28;20427;-83
2022/01/24 11:05:41;;;;;;;24.60;14.43;;;;;;;;;;5015271;28;20475;-82
2022/01/24 11:08:14;;;;;;;26.48;16.77;;;;;;;;;;5011794;28;20486;-80
2022/01/24 11:10:42;;;;;;;26.45;17.30;;;;;;;;;;5018044;28;20439;-82
2022/01/24 11:13:08;;;;;;;22.93;14.67;;;;;;;;;;5014558;28;20172;-82
2022/01/24 11:15:35;;;;;;;23.90;15.05;;;;;;;;;;5016861;28;20415;-82
2022/01/24 11:18:02;;;;;;;27.50;13.90;;;;;;;;;;5014254;28;20178;-79
2022/01/24 11:20:32;;;;;;;20.17;14.65;;;;;;;;;;5027973;28;20513;-80
2022/01/24 11:23:01;;;;;;;24.38;14.13;;;;;;;;;;5008131;28;20431;-81
2022/01/24 11:25:28;;;;;;;20.20;13.80;;;;;;;;;;5010268;28;20280;-81
2022/01/24 11:27:54;;;;;;;19.40;13.10;;;;;;;;;;5015659;28;20419;-81
2022/01/24 11:30:22;;;;;;;18.20;12.47;;;;;;;;;;5016829;28;20450;-80
2022/01/24 11:32:51;;;;;;;23.87;15.27;;;;;;;;;;5012739;28;20415;-81
2022/01/24 11:35:38;;;;;;;24.20;12.80;;;;;;;;;;5011704;28;20424;-81
2022/01/24 11:38:04;;;;;;;23.90;12.87;;;;;;;;;;5005185;28;20412;-80
2022/01/24 11:40:45;;;;;;;19.73;12.63;;;;;;;;;;5012986;28;20430;-80
2022/01/24 11:43:29;;;;;;;17.50;12.63;;;;;;;;;;5011050;28;20866;-81
2022/01/24 11:46:00;;;;;;;19.50;12.67;;;;;;;;;;5015517;28;21984;-79
2022/01/24 11:48:26;;;;;;;17.30;11.00;;;;;;;;;;5015162;28;20408;-81
2022/01/24 11:50:59;;;;;;;19.30;11.30;;;;;;;;;;5013731;28;20455;-81
2022/01/24 11:53:28;;;;;;;19.00;11.90;;;;;;;;;;5014281;28;20776;-80
2022/01/24 11:55:55;;;;;;;17.87;11.63;;;;;;;;;;5012687;28;20236;-80
2022/01/24 11:58:30;;;;;;;15.20;10.33;;;;;;;;;;5015879;28;20419;-79
2022/01/24 12:01:04;;;;;;;14.40;10.00;;;;;;;;;;5010260;28;20475;-80
2022/01/24 12:03:30;;;;;;;17.90;12.00;;;;;;;;;;5016488;28;20495;-79
2022/01/24 12:05:58;;;;;;;20.17;11.87;;;;;;;;;;5017035;28;20430;-79
2022/01/24 12:08:28;;;;;;;15.33;11.47;;;;;;;;;;5011293;28;20534;-80
2022/01/24 12:10:58;;;;;;;16.50;11.60;;;;;;;;;;5013957;28;20493;-80
2022/01/24 12:13:35;;;;;;;20.20;13.00;;;;;;;;;;5021364;28;20914;-80
2022/01/24 12:16:06;;;;;;;20.93;12.93;;;;;;;;;;5011960;28;20451;-81
2022/01/24 12:18:33;;;;;;;20.27;12.80;;;;;;;;;;5008241;28;20424;-82
2022/01/24 12:21:05;;;;;;;19.65;14.20;;;;;;;;;;5013214;28;20439;-81
2022/01/24 12:23:38;;;;;;;22.40;14.63;;;;;;;;;;5015752;28;20446;-81
2022/01/24 12:26:09;;;;;;;27.13;13.23;;;;;;;;;;5014948;28;20172;-82
2022/01/24 12:28:45;;;;;;;23.13;15.17;;;;;;;;;;5012389;28;20427;-82
2022/01/24 12:31:11;;;;;;;17.13;12.03;;;;;;;;;;5018357;28;20493;-79
2022/01/24 12:33:42;;;;;;;21.33;13.60;;;;;;;;;;5017293;28;20459;-80
2022/01/24 12:36:12;;;;;;;20.47;12.83;;;;;;;;;;5012374;28;20420;-80
2022/01/24 12:38:49;;;;;;;19.13;11.80;;;;;;;;;;5017965;28;20431;-79
2022/01/24 12:41:15;;;;;;;21.20;14.50;;;;;;;;;;5026155;28;20419;-78
2022/01/24 12:46:37;;;;;;;19.57;12.87;;;;;;;;;;4998916;28;20187;-80
2022/01/24 12:49:04;;;;;;;20.60;13.60;;;;;;;;;;5013242;28;20426;-82
2022/01/24 12:51:32;;;;;;;18.33;12.18;;;;;;;;;;5013959;28;20411;-82
2022/01/24 12:53:58;;;;;;;22.90;13.20;;;;;;;;;;5010456;28;20187;-81
2022/01/24 12:56:28;;;;;;;26.85;18.70;;;;;;;;;;5013963;28;20421;-80
2022/01/24 12:58:54;;;;;;;19.30;12.00;;;;;;;;;;5012542;28;20647;-78
2022/01/24 13:01:20;;;;;;;16.07;11.40;;;;;;;;;;5010924;28;20431;-80
2022/01/24 13:03:47;;;;;;;18.57;12.17;;;;;;;;;;5008584;28;20448;-79
2022/01/24 13:06:15;;;;;;;19.83;11.47;;;;;;;;;;5008004;28;20431;-81
2022/01/24 13:08:51;;;;;;;22.30;14.20;;;;;;;;;;5012749;28;20990;-81
2022/01/24 13:11:18;;;;;;;17.00;11.87;;;;;;;;;;5013279;28;20454;-81
2022/01/24 13:14:06;;;;;;;21.70;12.17;;;;;;;;;;5014343;28;20420;-81
2022/01/24 13:22:42;;;;;;;19.87;12.37;;;;;;;;;;5014245;28;20454;-82
2022/01/24 13:25:11;;;;;;;21.70;13.53;;;;;;;;;;5012695;28;20495;-81
2022/01/24 13:27:38;;;;;;;17.70;12.47;;;;;;;;;;5012605;28;20423;-81
2022/01/24 13:30:06;;;;;;;23.43;14.70;;;;;;;;;;5014283;28;20443;-80
2022/01/24 13:32:48;;;;;;;24.00;15.33;;;;;;;;;;5016351;28;20436;-82
2022/01/24 13:35:14;;;;;;;19.80;13.65;;;;;;;;;;5019129;28;20465;-81
2022/01/24 13:37:40;;;;;;;20.80;13.90;;;;;;;;;;5016810;28;20173;-81
2022/01/24 13:40:07;;;;;;;27.80;13.63;;;;;;;;;;5009580;28;22272;-80
2022/01/24 13:42:36;;;;;;;22.30;15.00;;;;;;;;;;5010980;28;20447;-80
2022/01/24 13:45:03;;;;;;;21.07;14.93;;;;;;;;;;5015730;28;20407;-82
2022/01/24 13:47:29;;;;;;;23.03;15.10;;;;;;;;;;5015629;28;20412;-81
2022/01/24 13:49:55;;;;;;;24.50;15.43;;;;;;;;;;5016588;28;20455;-82
2022/01/24 13:52:24;;;;;;;21.80;13.57;;;;;;;;;;5018239;28;20440;-82
2022/01/24 13:54:51;;;;;;;20.27;13.97;;;;;;;;;;5014113;28;20408;-82
2022/01/24 13:57:18;;;;;;;17.13;13.00;;;;;;;;;;5018453;28;20415;-82
2022/01/24 13:59:44;;;;;;;22.07;14.60;;;;;;;;;;5013944;28;20485;-82
2022/01/24 14:02:10;;;;;;;19.27;13.73;;;;;;;;;;5016871;28;20433;-83
2022/01/24 14:04:40;;;;;;;19.93;13.87;;;;;;;;;;5017182;28;20254;-80
2022/01/24 14:07:22;;;;;;;21.20;15.30;;;;;;;;;;5014061;28;20481;-81
2022/01/24 14:10:09;;;;;;;18.20;13.57;;;;;;;;;;5015368;28;20208;-81
2022/01/24 14:12:47;;;;;;;22.50;14.33;;;;;;;;;;5014403;28;20470;-82
2022/01/24 14:20:50;;;;;;;23.37;16.50;;;;;;;;;;5015111;28;20809;-80
2022/01/24 14:23:39;;;;;;;24.83;15.40;;;;;;;;;;5014875;28;20507;-82
2022/01/24 14:26:25;;;;;;;22.43;14.60;;;;;;;;;;5016639;28;20566;-80
2022/01/24 14:29:12;;;;;;;30.17;20.67;;;;;;;;;;5014142;28;20416;-81
2022/01/24 14:31:39;;;;;;;18.70;13.50;;;;;;;;;;5007124;28;20664;-81
2022/01/24 14:34:06;;;;;;;19.13;13.83;;;;;;;;;;5016403;28;21070;-82
2022/01/24 14:36:33;;;;;;;19.73;14.90;;;;;;;;;;5017052;28;20430;-82
2022/01/24 14:39:00;;;;;;;24.13;15.80;;;;;;;;;;5016805;28;20417;-81
2022/01/24 14:41:48;;;;;;;24.80;15.57;;;;;;;;;;5017005;28;20447;-82
2022/01/24 14:47:05;;;;;;;27.57;14.43;;;;;;;;;;5019031;28;20423;-80
2022/01/24 14:49:33;;;;;;;26.60;15.57;;;;;;;;;;5019295;28;20446;-80
2022/01/24 14:52:02;;;;;;;24.27;16.27;;;;;;;;;;5017652;28;20817;-80
2022/01/24 14:54:30;;;;;;;22.30;14.10;;;;;;;;;;5019003;28;20428;-78
2022/01/24 14:56:58;;;;;;;26.30;15.90;;;;;;;;;;5016716;28;20869;-81
2022/01/24 14:59:25;;;;;;;24.40;15.47;;;;;;;;;;5018637;28;20510;-81
2022/01/24 15:01:51;;;;;;;27.10;17.15;;;;;;;;;;5014387;28;20435;-81
2022/01/24 15:04:17;;;;;;;27.07;16.70;;;;;;;;;;5016942;28;20435;-80
2022/01/24 15:06:44;;;;;;;26.27;15.50;;;;;;;;;;5019913;28;20412;-80
2022/01/24 15:09:15;;;;;;;22.13;15.23;;;;;;;;;;5014536;28;21078;-80
2022/01/24 15:11:42;;;;;;;23.37;15.80;;;;;;;;;;5014974;28;20804;-82
2022/01/24 15:14:23;;;;;;;22.40;14.67;;;;;;;;;;5015609;28;20424;-79
2022/01/24 15:17:07;;;;;;;26.03;16.00;;;;;;;;;;5015394;28;20975;-81
2022/01/24 15:25:24;;;;;;;28.37;17.50;;;;;;;;;;5012201;28;20546;-80
2022/01/24 15:27:52;;;;;;;27.20;16.80;;;;;;;;;;5019578;28;20427;-80
2022/01/24 15:30:20;;;;;;;30.97;23.47;;;;;;;;;;5019847;28;20451;-80
2022/01/24 15:32:46;;;;;;;25.97;16.53;;;;;;;;;;5018684;28;20435;-80
2022/01/24 15:35:15;;;;;;;26.73;15.63;;;;;;;;;;5019831;28;20420;-82
2022/01/24 15:37:41;;;;;;;29.20;18.67;;;;;;;;;;5014387;28;21019;-81
2022/01/24 15:40:08;;;;;;;23.60;17.90;;;;;;;;;;5012944;28;20522;-81
2022/01/24 15:42:51;;;;;;;28.50;16.23;;;;;;;;;;5015232;28;21035;-82
2022/01/24 15:47:56;;;;;;;28.00;16.33;;;;;;;;;;5014211;28;20426;-82
2022/01/24 15:50:23;;;;;;;25.03;17.80;;;;;;;;;;5014098;28;20979;-82
2022/01/24 15:52:51;;;;;;;29.60;17.53;;;;;;;;;;5016981;28;20423;-83
2022/01/24 15:55:22;;;;;;;28.77;17.20;;;;;;;;;;5017337;28;20416;-83
2022/01/24 15:57:48;;;;;;;23.63;15.73;;;;;;;;;;5015808;28;20424;-80
2022/01/24 16:00:18;;;;;;;17.37;13.37;;;;;;;;;;5014793;28;20492;-83
2022/01/24 16:02:48;;;;;;;20.30;14.77;;;;;;;;;;5012905;28;20880;-82
2022/01/24 16:05:15;;;;;;;19.20;14.10;;;;;;;;;;5017517;28;20426;-82
2022/01/24 16:07:42;;;;;;;20.73;14.50;;;;;;;;;;5015819;28;20467;-82
2022/01/24 16:10:15;;;;;;;24.13;14.63;;;;;;;;;;5016254;28;20459;-82
2022/01/24 16:12:46;;;;;;;25.27;15.60;;;;;;;;;;5013761;28;20531;-80
2022/01/24 16:15:13;;;;;;;23.50;15.53;;;;;;;;;;5013105;28;20439;-83
2022/01/24 16:17:39;;;;;;;22.10;15.20;;;;;;;;;;5015471;28;20423;-81
2022/01/24 16:21:03;;;;;;;22.57;15.90;;;;;;;;;;5017004;28;20439;-82
2022/01/24 16:25:34;;;;;;;22.80;16.20;;;;;;;;;;5013766;28;20420;-83
2022/01/24 16:28:24;;;;;;;23.33;15.70;;;;;;;;;;5014938;28;20431;-81
2022/01/24 16:31:14;;;;;;;21.83;15.57;;;;;;;;;;5016668;28;20943;-83
2022/01/24 16:33:38;;;;;;;26.47;17.30;;;;;;;;;;5016075;28;20805;-83
2022/01/24 16:36:06;;;;;;;25.67;18.13;;;;;;;;;;5014111;28;20423;-84